This is the latest recevied weather packets stored in our database for station/object YB2YEN-13. If no packets are shown the sender has not sent any weather packets the latest 10 day(s).
| Time | Temp. | Humidity | Pressure | Rain* | Wind** | Luminosity | Snow |
|---|---|---|---|---|---|---|---|
| 1778054562 | 33.89° C | 59% | 975 hPa | - | - | 0 W/m² | - |
| 1778054240 | 34.44° C | 59% | 975 hPa | - | - | 0 W/m² | - |
| 1778053918 | 33.89° C | 63% | 975 hPa | - | - | 0 W/m² | - |
| 1778053596 | 34.44° C | 66% | 975 hPa | - | - | 0 W/m² | - |
| 1778053274 | 33.89° C | 64% | 975 hPa | - | - | 0 W/m² | - |
| 1778052952 | 33.89° C | 65% | 975 hPa | - | - | 0 W/m² | - |
| 1778052630 | 33.89° C | 70% | 975 hPa | - | - | 0 W/m² | - |
| 1778052308 | 33.89° C | 68% | 975 hPa | - | - | 0 W/m² | - |
| 1778051986 | 33.33° C | 68% | 975 hPa | - | - | 0 W/m² | - |
| 1778051664 | 34.44° C | 66% | 975 hPa | - | - | 0 W/m² | - |
| 1778051342 | 34.44° C | 66% | 975 hPa | - | - | 0 W/m² | - |
| 1778051020 | 33.89° C | 68% | 975 hPa | - | - | 0 W/m² | - |
| 1778050698 | 33.89° C | 65% | 975 hPa | - | - | 0 W/m² | - |
| 1778050376 | 33.33° C | 67% | 975 hPa | - | - | 0 W/m² | - |
| 1778050054 | 34.44° C | 66% | 975 hPa | - | - | 0 W/m² | - |
| 1778049732 | 34.44° C | 72% | 975 hPa | - | - | 0 W/m² | - |
| 1778049410 | 33.33° C | 73% | 975 hPa | - | - | 0 W/m² | - |
| 1778049088 | 33.89° C | 76% | 976 hPa | - | - | 0 W/m² | - |
| 1778048766 | 33.33° C | 80% | 976 hPa | - | - | 0 W/m² | - |
| 1778048444 | 33.33° C | 76% | 976 hPa | - | - | 0 W/m² | - |
| 1778048122 | 32.78° C | 85% | 976 hPa | - | - | 0 W/m² | - |
| 1778047800 | 32.22° C | 87% | 976 hPa | - | - | 0 W/m² | - |
| 1778047478 | 31.11° C | 89% | 976 hPa | - | - | 0 W/m² | - |
| 1778047156 | 31.67° C | 77% | 976 hPa | - | - | 0 W/m² | - |
| 1778046834 | 33.33° C | 67% | 976 hPa | - | - | 0 W/m² | - |
* Rain since midnight (hover to see other rain measurements)
** Current wind speed in m/s (hover to see current wind gust speed)